メインページ
METAR-TAF:

METAR-TAF

空港 :

青森空港

青森, 日本

緯度: 40-44N, 経度: 140-42E, 海抜: 199m

現時点の気象観測

当レポートは51分前の12:00(UTC)に作成
南西の風 5kt
気温 6°C
湿度 93%
気圧 1013 hPa
視程10km以上
高度4000ftの雲はほとんどない
千切れ雲あり

METAR: RJSA 161200Z 22005KT 9999 FEW040 BKN/// 06/05 Q1013

時間: 21:51 (12:51 UTC)

予報

当レポートは1時間45分前の11:06(UTC)に作成
予報は16日の 12時(UTC)から 17日の 18時(UTC)まで有効
南/南西の風 4kt
視程10km以上
高度3000ftの雲はほとんどない
17日の 00時(UTC)から 17日の 03時(UTC)まで徐々に
西の風 10kt
17日の 09時(UTC)から 17日の 12時(UTC)まで徐々に
南/南西の風 4kt

TAF: RJSA 161106Z 1612/1718 20004KT 9999 FEW030 BECMG 1700/1703 26010KT BECMG 1709/1712 20004KT

4,000以上の空港の気象観測と天気予報(METAR報とTAF報)

利用可能な観測所は地図上に黄色い丸と赤い丸で示す。

丸の上にカーソルを重ねると観測所名を参照できる。

次にクリックすると気象観測と天気予報を参照できる。

マップの切り替え:黒色「×」印の緑ボタンをクリックして拡大、「-」印の緑ボタンをクリックして縮小、緑色の三角印をクリックして隣りの地図に切り替え


METAR-TAF: